Bramham, United Kingdom
Current Conditions -  °F | °C
As of 6:20 PM on Thursday 27 Nov 2014 (Local Time) from EGNM Reporting Station
Moderate Fog Moderate Fog  
Wind Chill: 41°   Ceiling: Unl
Heat Index: 45°   Visibility: 0.25mi
Dew Point: 45°   Wind: 6mph
Humidity: 100%   Direction: 160°SSE
Pressure: 29.59"   Gusts: NA
Location:  53.88°N, 1.35°W
Report Text: EGNM 271820Z 16005KT 0400 R32/0450 FG VV/// 07/07 Q1002
Loading
Personal Weather Stations






























Interactive Weather Map New forecast layout! Learn more

10-Day Weather Forecast

Advertisements
Track Severe Weather on mobile